sensor_id;sensor_type;location;lat;lon;timestamp;temperature;humidity
6333;DHT22;3199;49.102;8.856;2023-04-24T00:01:41;12.10;99.90
6333;DHT22;3199;49.102;8.856;2023-04-24T00:04:08;12.10;99.90
6333;DHT22;3199;49.102;8.856;2023-04-24T00:06:38;12.10;99.90
6333;DHT22;3199;49.102;8.856;2023-04-24T00:09:08;12.10;99.90
6333;DHT22;3199;49.102;8.856;2023-04-24T00:11:35;12.10;99.90
6333;DHT22;3199;49.102;8.856;2023-04-24T00:14:01;12.20;99.90
6333;DHT22;3199;49.102;8.856;2023-04-24T00:16:27;12.20;99.90
6333;DHT22;3199;49.102;8.856;2023-04-24T00:18:53;12.10;99.90
6333;DHT22;3199;49.102;8.856;2023-04-24T00:21:18;12.10;99.90
6333;DHT22;3199;49.102;8.856;2023-04-24T00:23:44;12.10;99.90
6333;DHT22;3199;49.102;8.856;2023-04-24T00:26:10;12.10;99.90
6333;DHT22;3199;49.102;8.856;2023-04-24T00:28:35;12.10;99.90
6333;DHT22;3199;49.102;8.856;2023-04-24T00:31:01;12.10;99.90
6333;DHT22;3199;49.102;8.856;2023-04-24T00:33:27;12.10;99.90
6333;DHT22;3199;49.102;8.856;2023-04-24T00:35:52;12.00;99.90
6333;DHT22;3199;49.102;8.856;2023-04-24T00:38:18;12.00;99.90
6333;DHT22;3199;49.102;8.856;2023-04-24T00:40:44;12.00;99.90
6333;DHT22;3199;49.102;8.856;2023-04-24T00:43:10;12.00;99.90
6333;DHT22;3199;49.102;8.856;2023-04-24T00:45:35;12.00;99.90
6333;DHT22;3199;49.102;8.856;2023-04-24T00:48:01;12.00;99.90
6333;DHT22;3199;49.102;8.856;2023-04-24T00:50:28;12.10;99.90
6333;DHT22;3199;49.102;8.856;2023-04-24T00:52:53;12.10;99.90
6333;DHT22;3199;49.102;8.856;2023-04-24T00:55:19;12.00;99.90
6333;DHT22;3199;49.102;8.856;2023-04-24T00:57:45;12.10;99.90
6333;DHT22;3199;49.102;8.856;2023-04-24T01:00:12;12.10;99.90
6333;DHT22;3199;49.102;8.856;2023-04-24T01:02:39;12.10;99.90
6333;DHT22;3199;49.102;8.856;2023-04-24T01:05:09;12.10;99.90
6333;DHT22;3199;49.102;8.856;2023-04-24T01:07:35;12.10;99.90
6333;DHT22;3199;49.102;8.856;2023-04-24T01:10:01;12.10;99.90
6333;DHT22;3199;49.102;8.856;2023-04-24T01:12:27;12.10;99.90
6333;DHT22;3199;49.102;8.856;2023-04-24T01:14:54;12.10;99.90
6333;DHT22;3199;49.102;8.856;2023-04-24T01:17:19;12.10;99.90
6333;DHT22;3199;49.102;8.856;2023-04-24T01:19:46;12.10;99.90
6333;DHT22;3199;49.102;8.856;2023-04-24T01:22:13;12.20;99.90
6333;DHT22;3199;49.102;8.856;2023-04-24T01:24:39;12.10;99.90
6333;DHT22;3199;49.102;8.856;2023-04-24T01:27:05;12.10;99.90
6333;DHT22;3199;49.102;8.856;2023-04-24T01:29:31;12.10;99.90
6333;DHT22;3199;49.102;8.856;2023-04-24T01:31:57;12.10;99.90
6333;DHT22;3199;49.102;8.856;2023-04-24T01:34:24;12.10;99.90
6333;DHT22;3199;49.102;8.856;2023-04-24T01:36:49;12.00;99.90
6333;DHT22;3199;49.102;8.856;2023-04-24T01:39:15;12.00;99.90
6333;DHT22;3199;49.102;8.856;2023-04-24T01:41:42;12.00;99.90
6333;DHT22;3199;49.102;8.856;2023-04-24T01:44:07;12.10;99.90
6333;DHT22;3199;49.102;8.856;2023-04-24T01:46:33;12.00;99.90
6333;DHT22;3199;49.102;8.856;2023-04-24T01:49:01;12.00;99.90
6333;DHT22;3199;49.102;8.856;2023-04-24T01:51:26;12.00;99.90
6333;DHT22;3199;49.102;8.856;2023-04-24T01:53:52;12.00;99.90
6333;DHT22;3199;49.102;8.856;2023-04-24T01:56:22;12.00;99.90
6333;DHT22;3199;49.102;8.856;2023-04-24T01:58:52;12.00;99.90
6333;DHT22;3199;49.102;8.856;2023-04-24T02:01:23;12.00;99.90
6333;DHT22;3199;49.102;8.856;2023-04-24T02:03:49;11.90;99.90
6333;DHT22;3199;49.102;8.856;2023-04-24T02:06:14;11.90;99.90
6333;DHT22;3199;49.102;8.856;2023-04-24T02:08:40;11.90;99.90
6333;DHT22;3199;49.102;8.856;2023-04-24T02:11:05;11.90;99.90
6333;DHT22;3199;49.102;8.856;2023-04-24T02:13:31;11.90;99.90
6333;DHT22;3199;49.102;8.856;2023-04-24T02:15:58;11.90;99.90
6333;DHT22;3199;49.102;8.856;2023-04-24T02:18:24;11.90;99.90
6333;DHT22;3199;49.102;8.856;2023-04-24T02:20:49;11.90;99.90
6333;DHT22;3199;49.102;8.856;2023-04-24T02:23:15;11.90;99.90
6333;DHT22;3199;49.102;8.856;2023-04-24T02:25:40;11.90;99.90
6333;DHT22;3199;49.102;8.856;2023-04-24T02:28:06;11.90;99.90
6333;DHT22;3199;49.102;8.856;2023-04-24T02:30:31;11.90;99.90
6333;DHT22;3199;49.102;8.856;2023-04-24T02:32:57;11.90;99.90
6333;DHT22;3199;49.102;8.856;2023-04-24T02:35:22;11.80;99.90
6333;DHT22;3199;49.102;8.856;2023-04-24T02:37:48;11.70;99.90
6333;DHT22;3199;49.102;8.856;2023-04-24T02:40:14;11.70;99.90
6333;DHT22;3199;49.102;8.856;2023-04-24T02:42:39;11.60;99.90
6333;DHT22;3199;49.102;8.856;2023-04-24T02:45:05;11.60;99.90
6333;DHT22;3199;49.102;8.856;2023-04-24T02:47:31;11.50;99.90
6333;DHT22;3199;49.102;8.856;2023-04-24T02:49:56;11.40;99.90
6333;DHT22;3199;49.102;8.856;2023-04-24T02:52:22;11.30;99.90
6333;DHT22;3199;49.102;8.856;2023-04-24T02:54:47;11.20;99.90
6333;DHT22;3199;49.102;8.856;2023-04-24T02:57:13;11.20;99.90
6333;DHT22;3199;49.102;8.856;2023-04-24T02:59:38;11.20;99.90
6333;DHT22;3199;49.102;8.856;2023-04-24T03:02:04;11.20;99.90
6333;DHT22;3199;49.102;8.856;2023-04-24T03:04:31;11.20;99.90
6333;DHT22;3199;49.102;8.856;2023-04-24T03:06:57;11.20;99.90
6333;DHT22;3199;49.102;8.856;2023-04-24T03:09:22;11.20;99.90
6333;DHT22;3199;49.102;8.856;2023-04-24T03:11:48;11.20;99.90
6333;DHT22;3199;49.102;8.856;2023-04-24T03:14:15;11.30;99.90
6333;DHT22;3199;49.102;8.856;2023-04-24T03:16:40;11.30;99.90
6333;DHT22;3199;49.102;8.856;2023-04-24T03:19:06;11.30;99.90
6333;DHT22;3199;49.102;8.856;2023-04-24T03:21:31;11.40;99.90
6333;DHT22;3199;49.102;8.856;2023-04-24T03:23:57;11.50;99.90
6333;DHT22;3199;49.102;8.856;2023-04-24T03:26:22;11.50;99.90
6333;DHT22;3199;49.102;8.856;2023-04-24T03:28:48;11.50;99.90
6333;DHT22;3199;49.102;8.856;2023-04-24T03:31:13;11.50;99.90
6333;DHT22;3199;49.102;8.856;2023-04-24T03:33:40;11.40;99.90
6333;DHT22;3199;49.102;8.856;2023-04-24T03:36:06;11.40;99.90
6333;DHT22;3199;49.102;8.856;2023-04-24T03:38:32;11.30;99.90
6333;DHT22;3199;49.102;8.856;2023-04-24T03:40:57;11.30;99.90
6333;DHT22;3199;49.102;8.856;2023-04-24T03:43:23;11.30;99.90
6333;DHT22;3199;49.102;8.856;2023-04-24T03:45:48;11.10;99.90
6333;DHT22;3199;49.102;8.856;2023-04-24T03:48:14;11.10;99.90
6333;DHT22;3199;49.102;8.856;2023-04-24T03:50:40;11.00;99.90
6333;DHT22;3199;49.102;8.856;2023-04-24T03:53:05;10.90;99.90
6333;DHT22;3199;49.102;8.856;2023-04-24T03:55:31;10.90;99.90
6333;DHT22;3199;49.102;8.856;2023-04-24T03:57:56;10.80;99.90
6333;DHT22;3199;49.102;8.856;2023-04-24T04:00:22;10.70;99.90
6333;DHT22;3199;49.102;8.856;2023-04-24T04:02:47;10.50;99.90
6333;DHT22;3199;49.102;8.856;2023-04-24T04:05:13;10.30;99.90
6333;DHT22;3199;49.102;8.856;2023-04-24T04:07:38;10.20;99.90
6333;DHT22;3199;49.102;8.856;2023-04-24T04:10:04;10.00;99.90
6333;DHT22;3199;49.102;8.856;2023-04-24T04:12:32;9.90;99.90
6333;DHT22;3199;49.102;8.856;2023-04-24T04:14:57;9.80;99.90
6333;DHT22;3199;49.102;8.856;2023-04-24T04:17:23;9.80;99.90
6333;DHT22;3199;49.102;8.856;2023-04-24T04:19:48;9.80;99.90
6333;DHT22;3199;49.102;8.856;2023-04-24T04:22:14;10.10;99.90
6333;DHT22;3199;49.102;8.856;2023-04-24T04:24:39;10.10;99.90
6333;DHT22;3199;49.102;8.856;2023-04-24T04:27:06;10.20;99.90
6333;DHT22;3199;49.102;8.856;2023-04-24T04:29:32;10.20;99.90
6333;DHT22;3199;49.102;8.856;2023-04-24T04:31:58;10.20;99.90
6333;DHT22;3199;49.102;8.856;2023-04-24T04:34:24;10.20;99.90
6333;DHT22;3199;49.102;8.856;2023-04-24T04:36:49;10.10;99.90
6333;DHT22;3199;49.102;8.856;2023-04-24T04:39:15;10.10;99.90
6333;DHT22;3199;49.102;8.856;2023-04-24T04:41:42;10.10;99.90
6333;DHT22;3199;49.102;8.856;2023-04-24T04:44:07;10.00;99.90
6333;DHT22;3199;49.102;8.856;2023-04-24T04:46:34;9.90;99.90
6333;DHT22;3199;49.102;8.856;2023-04-24T04:49:01;9.80;99.90
6333;DHT22;3199;49.102;8.856;2023-04-24T04:51:27;9.80;99.90
6333;DHT22;3199;49.102;8.856;2023-04-24T04:53:53;9.80;99.90
6333;DHT22;3199;49.102;8.856;2023-04-24T04:56:18;9.70;99.90
6333;DHT22;3199;49.102;8.856;2023-04-24T04:58:44;9.70;99.90
6333;DHT22;3199;49.102;8.856;2023-04-24T05:01:10;9.70;99.90
6333;DHT22;3199;49.102;8.856;2023-04-24T05:03:35;9.60;99.90
6333;DHT22;3199;49.102;8.856;2023-04-24T05:06:02;9.60;99.90
6333;DHT22;3199;49.102;8.856;2023-04-24T05:08:27;9.60;99.90
6333;DHT22;3199;49.102;8.856;2023-04-24T05:10:53;9.60;99.90
6333;DHT22;3199;49.102;8.856;2023-04-24T05:13:19;9.50;99.90
6333;DHT22;3199;49.102;8.856;2023-04-24T05:15:45;9.50;99.90
6333;DHT22;3199;49.102;8.856;2023-04-24T05:18:10;9.60;99.90
6333;DHT22;3199;49.102;8.856;2023-04-24T05:20:36;9.60;99.90
6333;DHT22;3199;49.102;8.856;2023-04-24T05:23:01;9.70;99.90
6333;DHT22;3199;49.102;8.856;2023-04-24T05:25:27;9.70;99.90
6333;DHT22;3199;49.102;8.856;2023-04-24T05:27:52;9.80;99.90
6333;DHT22;3199;49.102;8.856;2023-04-24T05:30:19;9.90;99.90
6333;DHT22;3199;49.102;8.856;2023-04-24T05:32:45;10.10;99.90
6333;DHT22;3199;49.102;8.856;2023-04-24T05:35:10;10.30;99.90
6333;DHT22;3199;49.102;8.856;2023-04-24T05:37:36;10.60;99.90
6333;DHT22;3199;49.102;8.856;2023-04-24T05:40:02;11.00;99.90
6333;DHT22;3199;49.102;8.856;2023-04-24T05:42:29;11.40;99.90
6333;DHT22;3199;49.102;8.856;2023-04-24T05:44:55;11.70;99.90
6333;DHT22;3199;49.102;8.856;2023-04-24T05:47:20;11.90;99.90
6333;DHT22;3199;49.102;8.856;2023-04-24T05:49:47;12.20;99.90
6333;DHT22;3199;49.102;8.856;2023-04-24T05:52:13;12.50;99.90
6333;DHT22;3199;49.102;8.856;2023-04-24T05:54:38;13.00;99.90
6333;DHT22;3199;49.102;8.856;2023-04-24T05:57:04;13.10;99.90
6333;DHT22;3199;49.102;8.856;2023-04-24T05:59:33;13.20;99.90
6333;DHT22;3199;49.102;8.856;2023-04-24T06:01:59;13.20;99.90
6333;DHT22;3199;49.102;8.856;2023-04-24T06:04:25;13.50;99.90
6333;DHT22;3199;49.102;8.856;2023-04-24T06:06:50;13.50;99.90
6333;DHT22;3199;49.102;8.856;2023-04-24T06:09:21;13.90;99.90
6333;DHT22;3199;49.102;8.856;2023-04-24T06:11:47;14.40;99.90
6333;DHT22;3199;49.102;8.856;2023-04-24T06:14:13;14.80;99.90
6333;DHT22;3199;49.102;8.856;2023-04-24T06:16:40;14.90;99.90
6333;DHT22;3199;49.102;8.856;2023-04-24T06:19:05;14.90;99.90
6333;DHT22;3199;49.102;8.856;2023-04-24T06:21:31;15.00;99.90
6333;DHT22;3199;49.102;8.856;2023-04-24T06:23:56;15.10;99.90
6333;DHT22;3199;49.102;8.856;2023-04-24T06:26:23;15.20;99.90
6333;DHT22;3199;49.102;8.856;2023-04-24T06:28:50;15.30;99.90
6333;DHT22;3199;49.102;8.856;2023-04-24T06:31:16;15.40;99.90
6333;DHT22;3199;49.102;8.856;2023-04-24T06:33:42;15.40;99.90
6333;DHT22;3199;49.102;8.856;2023-04-24T06:36:08;15.80;99.90
6333;DHT22;3199;49.102;8.856;2023-04-24T06:38:34;16.30;99.90
6333;DHT22;3199;49.102;8.856;2023-04-24T06:40:59;15.40;98.50
6333;DHT22;3199;49.102;8.856;2023-04-24T06:43:25;15.10;99.90
6333;DHT22;3199;49.102;8.856;2023-04-24T06:45:51;14.50;99.90
6333;DHT22;3199;49.102;8.856;2023-04-24T06:48:16;14.10;99.90
6333;DHT22;3199;49.102;8.856;2023-04-24T06:50:42;13.80;99.90
6333;DHT22;3199;49.102;8.856;2023-04-24T06:53:07;13.70;99.90
6333;DHT22;3199;49.102;8.856;2023-04-24T06:55:35;13.50;99.90
6333;DHT22;3199;49.102;8.856;2023-04-24T06:58:01;13.20;99.90
6333;DHT22;3199;49.102;8.856;2023-04-24T07:00:26;13.10;99.90
6333;DHT22;3199;49.102;8.856;2023-04-24T07:02:52;13.00;99.90
6333;DHT22;3199;49.102;8.856;2023-04-24T07:05:18;13.00;99.90
6333;DHT22;3199;49.102;8.856;2023-04-24T07:07:46;13.00;99.90
6333;DHT22;3199;49.102;8.856;2023-04-24T07:10:12;12.70;99.90
6333;DHT22;3199;49.102;8.856;2023-04-24T07:12:38;12.50;99.90
6333;DHT22;3199;49.102;8.856;2023-04-24T07:15:05;12.40;99.90
6333;DHT22;3199;49.102;8.856;2023-04-24T07:17:31;12.50;99.90
6333;DHT22;3199;49.102;8.856;2023-04-24T07:19:56;12.70;99.90
6333;DHT22;3199;49.102;8.856;2023-04-24T07:22:22;12.90;99.90
6333;DHT22;3199;49.102;8.856;2023-04-24T07:24:48;13.00;99.90
6333;DHT22;3199;49.102;8.856;2023-04-24T07:27:13;13.40;99.90
6333;DHT22;3199;49.102;8.856;2023-04-24T07:29:40;13.30;99.90
6333;DHT22;3199;49.102;8.856;2023-04-24T07:32:06;13.50;99.90
6333;DHT22;3199;49.102;8.856;2023-04-24T07:34:31;13.90;99.90
6333;DHT22;3199;49.102;8.856;2023-04-24T07:36:57;13.80;99.90
6333;DHT22;3199;49.102;8.856;2023-04-24T07:39:24;13.70;99.40
6333;DHT22;3199;49.102;8.856;2023-04-24T07:41:49;13.90;99.20
6333;DHT22;3199;49.102;8.856;2023-04-24T07:44:15;13.70;98.20
6333;DHT22;3199;49.102;8.856;2023-04-24T07:46:41;13.60;98.20
6333;DHT22;3199;49.102;8.856;2023-04-24T07:49:06;13.50;98.20
6333;DHT22;3199;49.102;8.856;2023-04-24T07:51:32;13.20;97.80
6333;DHT22;3199;49.102;8.856;2023-04-24T07:54:03;13.20;98.00
6333;DHT22;3199;49.102;8.856;2023-04-24T07:56:30;13.00;98.10
6333;DHT22;3199;49.102;8.856;2023-04-24T07:58:56;12.60;97.90
6333;DHT22;3199;49.102;8.856;2023-04-24T08:01:21;12.50;98.60
6333;DHT22;3199;49.102;8.856;2023-04-24T08:03:47;12.40;99.40
6333;DHT22;3199;49.102;8.856;2023-04-24T08:06:13;12.40;99.90
6333;DHT22;3199;49.102;8.856;2023-04-24T08:08:38;12.50;99.90
6333;DHT22;3199;49.102;8.856;2023-04-24T08:11:04;12.60;99.90
6333;DHT22;3199;49.102;8.856;2023-04-24T08:13:29;12.80;99.90
6333;DHT22;3199;49.102;8.856;2023-04-24T08:15:56;13.00;99.50
6333;DHT22;3199;49.102;8.856;2023-04-24T08:18:22;12.90;99.00
6333;DHT22;3199;49.102;8.856;2023-04-24T08:20:47;12.70;99.40
6333;DHT22;3199;49.102;8.856;2023-04-24T08:23:13;12.50;99.60
6333;DHT22;3199;49.102;8.856;2023-04-24T08:25:39;12.20;99.90
6333;DHT22;3199;49.102;8.856;2023-04-24T08:28:06;11.90;99.90
6333;DHT22;3199;49.102;8.856;2023-04-24T08:30:33;11.80;99.90
6333;DHT22;3199;49.102;8.856;2023-04-24T08:32:59;11.90;99.90
6333;DHT22;3199;49.102;8.856;2023-04-24T08:35:25;12.20;99.90
6333;DHT22;3199;49.102;8.856;2023-04-24T08:37:51;12.30;99.90
6333;DHT22;3199;49.102;8.856;2023-04-24T08:40:17;12.40;99.90
6333;DHT22;3199;49.102;8.856;2023-04-24T08:42:43;12.70;99.90
6333;DHT22;3199;49.102;8.856;2023-04-24T08:45:12;12.50;99.50
6333;DHT22;3199;49.102;8.856;2023-04-24T08:47:40;12.60;99.90
6333;DHT22;3199;49.102;8.856;2023-04-24T08:50:07;12.90;99.30
6333;DHT22;3199;49.102;8.856;2023-04-24T08:52:34;13.30;99.30
6333;DHT22;3199;49.102;8.856;2023-04-24T08:55:00;13.80;99.10
6333;DHT22;3199;49.102;8.856;2023-04-24T08:57:26;14.10;98.60
6333;DHT22;3199;49.102;8.856;2023-04-24T08:59:53;14.30;97.90
6333;DHT22;3199;49.102;8.856;2023-04-24T09:02:19;14.50;97.60
6333;DHT22;3199;49.102;8.856;2023-04-24T09:04:47;14.70;96.60
6333;DHT22;3199;49.102;8.856;2023-04-24T09:07:14;14.50;96.20
6333;DHT22;3199;49.102;8.856;2023-04-24T09:09:42;14.00;95.80
6333;DHT22;3199;49.102;8.856;2023-04-24T09:12:07;13.40;95.00
6333;DHT22;3199;49.102;8.856;2023-04-24T09:14:35;13.20;96.40
6333;DHT22;3199;49.102;8.856;2023-04-24T09:17:03;13.30;96.40
6333;DHT22;3199;49.102;8.856;2023-04-24T09:19:29;13.80;97.70
6333;DHT22;3199;49.102;8.856;2023-04-24T09:21:54;14.20;97.20
6333;DHT22;3199;49.102;8.856;2023-04-24T09:24:21;14.70;96.50
6333;DHT22;3199;49.102;8.856;2023-04-24T09:26:59;15.00;96.00
6333;DHT22;3199;49.102;8.856;2023-04-24T09:29:26;15.20;94.30
6333;DHT22;3199;49.102;8.856;2023-04-24T09:31:52;15.40;93.40
6333;DHT22;3199;49.102;8.856;2023-04-24T09:34:27;15.60;93.10
6333;DHT22;3199;49.102;8.856;2023-04-24T09:36:53;15.60;92.50
6333;DHT22;3199;49.102;8.856;2023-04-24T09:39:19;15.60;93.00
6333;DHT22;3199;49.102;8.856;2023-04-24T09:41:55;15.90;92.80
6333;DHT22;3199;49.102;8.856;2023-04-24T09:44:26;16.10;93.10
6333;DHT22;3199;49.102;8.856;2023-04-24T09:49:29;15.70;91.80
6333;DHT22;3199;49.102;8.856;2023-04-24T09:52:09;15.00;91.60
6333;DHT22;3199;49.102;8.856;2023-04-24T09:54:35;14.40;92.60
6333;DHT22;3199;49.102;8.856;2023-04-24T09:57:02;13.70;93.70
6333;DHT22;3199;49.102;8.856;2023-04-24T09:59:27;13.20;94.70
6333;DHT22;3199;49.102;8.856;2023-04-24T10:01:54;12.90;95.90
6333;DHT22;3199;49.102;8.856;2023-04-24T10:04:21;12.60;96.40
6333;DHT22;3199;49.102;8.856;2023-04-24T10:06:49;12.50;97.00
6333;DHT22;3199;49.102;8.856;2023-04-24T10:09:16;12.50;97.30
6333;DHT22;3199;49.102;8.856;2023-04-24T10:11:44;12.50;96.90
6333;DHT22;3199;49.102;8.856;2023-04-24T10:14:18;12.40;96.10
6333;DHT22;3199;49.102;8.856;2023-04-24T10:16:44;12.40;96.10
6333;DHT22;3199;49.102;8.856;2023-04-24T10:19:12;12.50;96.60
6333;DHT22;3199;49.102;8.856;2023-04-24T10:21:39;12.50;96.40
6333;DHT22;3199;49.102;8.856;2023-04-24T10:24:08;12.40;95.50
6333;DHT22;3199;49.102;8.856;2023-04-24T10:26:34;12.60;96.10
6333;DHT22;3199;49.102;8.856;2023-04-24T10:29:01;13.20;96.50
6333;DHT22;3199;49.102;8.856;2023-04-24T10:31:28;13.80;96.00
6333;DHT22;3199;49.102;8.856;2023-04-24T10:33:56;14.10;93.60
6333;DHT22;3199;49.102;8.856;2023-04-24T10:36:24;14.50;94.20
6333;DHT22;3199;49.102;8.856;2023-04-24T10:38:52;15.10;92.40
6333;DHT22;3199;49.102;8.856;2023-04-24T10:41:20;15.30;90.80
6333;DHT22;3199;49.102;8.856;2023-04-24T10:43:48;15.50;91.20
6333;DHT22;3199;49.102;8.856;2023-04-24T10:46:30;15.30;90.70
6333;DHT22;3199;49.102;8.856;2023-04-24T10:48:56;14.80;90.20
6333;DHT22;3199;49.102;8.856;2023-04-24T10:51:24;14.40;90.50
6333;DHT22;3199;49.102;8.856;2023-04-24T10:53:50;14.20;91.50
6333;DHT22;3199;49.102;8.856;2023-04-24T10:56:16;14.00;91.90
6333;DHT22;3199;49.102;8.856;2023-04-24T10:58:50;13.90;92.60
6333;DHT22;3199;49.102;8.856;2023-04-24T11:01:33;13.70;92.10
6333;DHT22;3199;49.102;8.856;2023-04-24T11:04:00;13.30;91.90
6333;DHT22;3199;49.102;8.856;2023-04-24T11:06:35;13.10;92.80
6333;DHT22;3199;49.102;8.856;2023-04-24T11:09:09;12.80;93.50
6333;DHT22;3199;49.102;8.856;2023-04-24T11:11:36;12.50;94.80
6333;DHT22;3199;49.102;8.856;2023-04-24T11:14:04;12.40;95.30
6333;DHT22;3199;49.102;8.856;2023-04-24T11:16:32;12.40;95.70
6333;DHT22;3199;49.102;8.856;2023-04-24T11:19:17;12.40;96.10
6333;DHT22;3199;49.102;8.856;2023-04-24T11:21:55;12.40;96.40
6333;DHT22;3199;49.102;8.856;2023-04-24T11:27:04;12.40;96.50
6333;DHT22;3199;49.102;8.856;2023-04-24T11:32:16;13.10;96.90
6333;DHT22;3199;49.102;8.856;2023-04-24T11:34:46;13.80;96.30
6333;DHT22;3199;49.102;8.856;2023-04-24T11:37:13;14.00;95.10
6333;DHT22;3199;49.102;8.856;2023-04-24T11:39:38;13.80;94.10
6333;DHT22;3199;49.102;8.856;2023-04-24T11:42:04;13.60;94.60
6333;DHT22;3199;49.102;8.856;2023-04-24T11:44:33;13.50;94.90
6333;DHT22;3199;49.102;8.856;2023-04-24T11:46:59;13.40;96.30
6333;DHT22;3199;49.102;8.856;2023-04-24T11:49:25;13.40;96.10
6333;DHT22;3199;49.102;8.856;2023-04-24T11:51:50;13.60;96.80
6333;DHT22;3199;49.102;8.856;2023-04-24T11:54:20;13.80;97.00
6333;DHT22;3199;49.102;8.856;2023-04-24T11:56:47;13.80;95.90
6333;DHT22;3199;49.102;8.856;2023-04-24T11:59:12;13.90;95.90
6333;DHT22;3199;49.102;8.856;2023-04-24T12:01:47;13.80;96.10
6333;DHT22;3199;49.102;8.856;2023-04-24T12:04:14;13.60;96.00
6333;DHT22;3199;49.102;8.856;2023-04-24T12:06:58;13.50;97.10
6333;DHT22;3199;49.102;8.856;2023-04-24T12:09:23;13.20;96.40
6333;DHT22;3199;49.102;8.856;2023-04-24T12:11:56;13.30;97.70
6333;DHT22;3199;49.102;8.856;2023-04-24T12:14:22;13.50;97.60
6333;DHT22;3199;49.102;8.856;2023-04-24T12:16:49;13.80;96.80
6333;DHT22;3199;49.102;8.856;2023-04-24T12:19:22;13.90;96.20
6333;DHT22;3199;49.102;8.856;2023-04-24T12:22:05;13.70;95.50
6333;DHT22;3199;49.102;8.856;2023-04-24T12:24:31;13.80;96.20
6333;DHT22;3199;49.102;8.856;2023-04-24T12:26:57;13.60;96.10
6333;DHT22;3199;49.102;8.856;2023-04-24T12:29:24;13.60;97.10
6333;DHT22;3199;49.102;8.856;2023-04-24T12:31:51;13.80;97.20
6333;DHT22;3199;49.102;8.856;2023-04-24T12:34:24;13.80;96.20
6333;DHT22;3199;49.102;8.856;2023-04-24T12:36:50;13.70;96.30
6333;DHT22;3199;49.102;8.856;2023-04-24T12:39:19;13.70;97.10
6333;DHT22;3199;49.102;8.856;2023-04-24T12:41:57;14.10;97.20
6333;DHT22;3199;49.102;8.856;2023-04-24T12:44:33;14.70;96.50
6333;DHT22;3199;49.102;8.856;2023-04-24T12:47:00;14.90;95.10
6333;DHT22;3199;49.102;8.856;2023-04-24T12:49:27;14.40;94.20
6333;DHT22;3199;49.102;8.856;2023-04-24T12:51:53;14.20;95.00
6333;DHT22;3199;49.102;8.856;2023-04-24T12:54:19;13.90;94.90
6333;DHT22;3199;49.102;8.856;2023-04-24T12:56:44;13.90;96.30
6333;DHT22;3199;49.102;8.856;2023-04-24T12:59:10;13.80;96.20
6333;DHT22;3199;49.102;8.856;2023-04-24T13:01:35;13.60;96.20
6333;DHT22;3199;49.102;8.856;2023-04-24T13:04:01;13.40;96.10
6333;DHT22;3199;49.102;8.856;2023-04-24T13:06:26;12.90;96.60
6333;DHT22;3199;49.102;8.856;2023-04-24T13:08:52;12.80;97.50
6333;DHT22;3199;49.102;8.856;2023-04-24T13:11:20;13.10;98.40
6333;DHT22;3199;49.102;8.856;2023-04-24T13:13:47;13.40;97.50
6333;DHT22;3199;49.102;8.856;2023-04-24T13:16:12;13.50;96.40
6333;DHT22;3199;49.102;8.856;2023-04-24T13:18:38;13.50;96.10
6333;DHT22;3199;49.102;8.856;2023-04-24T13:21:03;13.60;96.10
6333;DHT22;3199;49.102;8.856;2023-04-24T13:23:29;13.60;95.90
6333;DHT22;3199;49.102;8.856;2023-04-24T13:25:54;13.50;96.20
6333;DHT22;3199;49.102;8.856;2023-04-24T13:28:23;13.40;95.70
6333;DHT22;3199;49.102;8.856;2023-04-24T13:30:49;13.30;96.00
6333;DHT22;3199;49.102;8.856;2023-04-24T13:33:15;13.20;96.20
6333;DHT22;3199;49.102;8.856;2023-04-24T13:35:40;13.30;96.90
6333;DHT22;3199;49.102;8.856;2023-04-24T13:38:06;13.40;96.40
6333;DHT22;3199;49.102;8.856;2023-04-24T13:40:32;13.40;95.60
6333;DHT22;3199;49.102;8.856;2023-04-24T13:42:58;13.50;95.60
6333;DHT22;3199;49.102;8.856;2023-04-24T13:45:23;13.50;95.00
6333;DHT22;3199;49.102;8.856;2023-04-24T13:47:49;13.50;95.00
6333;DHT22;3199;49.102;8.856;2023-04-24T13:50:14;13.50;94.40
6333;DHT22;3199;49.102;8.856;2023-04-24T13:52:40;13.60;94.90
6333;DHT22;3199;49.102;8.856;2023-04-24T13:55:06;13.50;93.50
6333;DHT22;3199;49.102;8.856;2023-04-24T13:57:32;13.60;93.50
6333;DHT22;3199;49.102;8.856;2023-04-24T13:59:58;13.70;93.60
6333;DHT22;3199;49.102;8.856;2023-04-24T14:02:27;13.90;93.30
6333;DHT22;3199;49.102;8.856;2023-04-24T14:04:52;13.90;92.80
6333;DHT22;3199;49.102;8.856;2023-04-24T14:07:18;14.20;96.10
6333;DHT22;3199;49.102;8.856;2023-04-24T14:09:43;14.60;93.00
6333;DHT22;3199;49.102;8.856;2023-04-24T14:12:09;14.60;91.80
6333;DHT22;3199;49.102;8.856;2023-04-24T14:14:35;14.50;92.10
6333;DHT22;3199;49.102;8.856;2023-04-24T14:17:00;14.50;92.10
6333;DHT22;3199;49.102;8.856;2023-04-24T14:19:26;14.20;91.60
6333;DHT22;3199;49.102;8.856;2023-04-24T14:21:51;14.20;92.50
6333;DHT22;3199;49.102;8.856;2023-04-24T14:24:17;14.10;92.20
6333;DHT22;3199;49.102;8.856;2023-04-24T14:26:43;13.90;92.30
6333;DHT22;3199;49.102;8.856;2023-04-24T14:29:08;13.90;92.80
6333;DHT22;3199;49.102;8.856;2023-04-24T14:31:34;14.00;93.00
6333;DHT22;3199;49.102;8.856;2023-04-24T14:33:59;13.90;92.30
6333;DHT22;3199;49.102;8.856;2023-04-24T14:36:25;13.70;92.30
6333;DHT22;3199;49.102;8.856;2023-04-24T14:38:51;13.70;92.40
6333;DHT22;3199;49.102;8.856;2023-04-24T14:41:16;13.80;92.30
6333;DHT22;3199;49.102;8.856;2023-04-24T14:43:42;13.90;92.40
6333;DHT22;3199;49.102;8.856;2023-04-24T14:46:08;13.90;93.00
6333;DHT22;3199;49.102;8.856;2023-04-24T14:48:33;14.10;92.80
6333;DHT22;3199;49.102;8.856;2023-04-24T14:50:59;14.20;92.80
6333;DHT22;3199;49.102;8.856;2023-04-24T14:53:24;14.30;92.80
6333;DHT22;3199;49.102;8.856;2023-04-24T14:55:50;14.10;92.40
6333;DHT22;3199;49.102;8.856;2023-04-24T14:58:15;14.00;92.50
6333;DHT22;3199;49.102;8.856;2023-04-24T15:00:41;13.90;92.30
6333;DHT22;3199;49.102;8.856;2023-04-24T15:03:06;14.00;93.80
6333;DHT22;3199;49.102;8.856;2023-04-24T15:05:32;14.10;93.80
6333;DHT22;3199;49.102;8.856;2023-04-24T15:07:58;14.10;93.60
6333;DHT22;3199;49.102;8.856;2023-04-24T15:10:23;14.00;93.60
6333;DHT22;3199;49.102;8.856;2023-04-24T15:12:50;13.90;92.60
6333;DHT22;3199;49.102;8.856;2023-04-24T15:15:16;13.90;93.00
6333;DHT22;3199;49.102;8.856;2023-04-24T15:17:42;13.90;92.80
6333;DHT22;3199;49.102;8.856;2023-04-24T15:20:08;13.80;92.90
6333;DHT22;3199;49.102;8.856;2023-04-24T15:22:34;13.70;92.90
6333;DHT22;3199;49.102;8.856;2023-04-24T15:24:59;13.60;93.30
6333;DHT22;3199;49.102;8.856;2023-04-24T15:27:25;13.70;93.80
6333;DHT22;3199;49.102;8.856;2023-04-24T15:29:50;13.70;93.70
6333;DHT22;3199;49.102;8.856;2023-04-24T15:32:16;13.60;93.80
6333;DHT22;3199;49.102;8.856;2023-04-24T15:34:41;13.70;94.30
6333;DHT22;3199;49.102;8.856;2023-04-24T15:37:07;13.80;93.80
6333;DHT22;3199;49.102;8.856;2023-04-24T15:39:33;13.80;93.50
6333;DHT22;3199;49.102;8.856;2023-04-24T15:41:59;13.70;93.60
6333;DHT22;3199;49.102;8.856;2023-04-24T15:44:25;13.70;93.90
6333;DHT22;3199;49.102;8.856;2023-04-24T15:46:51;13.60;94.20
6333;DHT22;3199;49.102;8.856;2023-04-24T15:49:17;13.50;94.20
6333;DHT22;3199;49.102;8.856;2023-04-24T15:51:42;13.50;94.50
6333;DHT22;3199;49.102;8.856;2023-04-24T15:54:08;13.50;94.60
6333;DHT22;3199;49.102;8.856;2023-04-24T15:56:33;13.40;94.50
6333;DHT22;3199;49.102;8.856;2023-04-24T15:59:01;13.50;94.70
6333;DHT22;3199;49.102;8.856;2023-04-24T16:01:27;13.60;94.80
6333;DHT22;3199;49.102;8.856;2023-04-24T16:03:53;13.50;94.70
6333;DHT22;3199;49.102;8.856;2023-04-24T16:06:19;13.40;94.60